sensor_id;sensor_type;location;lat;lon;timestamp;pressure;altitude;pressure_sealevel;temperature;humidity
76762;BME280;65705;51.032;13.790;2022-12-18T00:01:19;101949.94;;;-6.20;72.71
76762;BME280;65705;51.032;13.790;2022-12-18T00:03:45;101946.56;;;-6.26;73.13
76762;BME280;65705;51.032;13.790;2022-12-18T00:06:14;101953.25;;;-6.07;72.68
76762;BME280;65705;51.032;13.790;2022-12-18T00:08:41;101945.66;;;-6.12;71.84
76762;BME280;65705;51.032;13.790;2022-12-18T00:11:09;101944.81;;;-6.20;71.98
76762;BME280;65705;51.032;13.790;2022-12-18T00:13:36;101945.75;;;-6.30;72.43
76762;BME280;65705;51.032;13.790;2022-12-18T00:16:13;101962.75;;;-6.26;72.34
76762;BME280;65705;51.032;13.790;2022-12-18T00:18:39;101959.31;;;-6.22;72.53
76762;BME280;65705;51.032;13.790;2022-12-18T00:21:07;101974.59;;;-6.11;71.89
76762;BME280;65705;51.032;13.790;2022-12-18T00:23:34;101974.59;;;-6.10;71.94
76762;BME280;65705;51.032;13.790;2022-12-18T00:26:02;101978.69;;;-5.88;71.40
76762;BME280;65705;51.032;13.790;2022-12-18T00:28:30;101974.50;;;-5.96;70.79
76762;BME280;65705;51.032;13.790;2022-12-18T00:31:09;101974.56;;;-6.02;71.29
76762;BME280;65705;51.032;13.790;2022-12-18T00:33:36;101981.38;;;-6.09;71.35
76762;BME280;65705;51.032;13.790;2022-12-18T00:36:06;101979.63;;;-6.04;70.81
76762;BME280;65705;51.032;13.790;2022-12-18T00:38:33;101979.78;;;-6.26;70.99
76762;BME280;65705;51.032;13.790;2022-12-18T00:40:59;101980.69;;;-6.35;71.20
76762;BME280;65705;51.032;13.790;2022-12-18T00:43:25;101996.00;;;-6.33;70.85
76762;BME280;65705;51.032;13.790;2022-12-18T00:45:52;102000.28;;;-6.37;71.16
76762;BME280;65705;51.032;13.790;2022-12-18T00:48:18;102007.09;;;-6.42;71.19
76762;BME280;65705;51.032;13.790;2022-12-18T00:50:44;102007.09;;;-6.45;71.22
76762;BME280;65705;51.032;13.790;2022-12-18T00:53:10;102004.59;;;-6.56;71.38
76762;BME280;65705;51.032;13.790;2022-12-18T00:55:38;102006.28;;;-6.58;71.24
76762;BME280;65705;51.032;13.790;2022-12-18T00:58:04;102003.75;;;-6.56;71.08
76762;BME280;65705;51.032;13.790;2022-12-18T01:00:30;102001.25;;;-6.77;71.82
76762;BME280;65705;51.032;13.790;2022-12-18T01:02:56;102005.59;;;-7.06;72.82
76762;BME280;65705;51.032;13.790;2022-12-18T01:05:21;101999.63;;;-7.31;73.39
76762;BME280;65705;51.032;13.790;2022-12-18T01:07:47;102003.06;;;-7.42;73.68
76762;BME280;65705;51.032;13.790;2022-12-18T01:10:13;102003.03;;;-7.45;73.23
76762;BME280;65705;51.032;13.790;2022-12-18T01:12:39;102010.72;;;-7.32;72.70
76762;BME280;65705;51.032;13.790;2022-12-18T01:15:06;102014.94;;;-7.13;73.24
76762;BME280;65705;51.032;13.790;2022-12-18T01:17:33;102019.16;;;-6.91;72.32
76762;BME280;65705;51.032;13.790;2022-12-18T01:20:00;102009.78;;;-6.78;71.65
76762;BME280;65705;51.032;13.790;2022-12-18T01:22:26;102020.81;;;-6.81;71.43
76762;BME280;65705;51.032;13.790;2022-12-18T01:24:51;102013.16;;;-6.75;71.40
76762;BME280;65705;51.032;13.790;2022-12-18T01:27:17;102025.06;;;-6.71;70.66
76762;BME280;65705;51.032;13.790;2022-12-18T01:29:43;102029.31;;;-6.68;70.71
76762;BME280;65705;51.032;13.790;2022-12-18T01:32:09;102029.31;;;-6.68;70.58
76762;BME280;65705;51.032;13.790;2022-12-18T01:34:37;102024.22;;;-6.74;70.73
76762;BME280;65705;51.032;13.790;2022-12-18T01:37:04;102031.03;;;-6.79;71.05
76762;BME280;65705;51.032;13.790;2022-12-18T01:39:31;102031.91;;;-6.80;71.14
76762;BME280;65705;51.032;13.790;2022-12-18T01:42:01;102027.63;;;-6.78;70.89
76762;BME280;65705;51.032;13.790;2022-12-18T01:47:39;102028.53;;;-6.97;71.53
76762;BME280;65705;51.032;13.790;2022-12-18T01:52:50;102015.81;;;-7.32;72.95
76762;BME280;65705;51.032;13.790;2022-12-18T01:55:19;102023.44;;;-7.56;73.40
76762;BME280;65705;51.032;13.790;2022-12-18T01:57:47;102028.53;;;-7.68;74.35
76762;BME280;65705;51.032;13.790;2022-12-18T02:00:17;102031.91;;;-7.78;74.53
76762;BME280;65705;51.032;13.790;2022-12-18T02:02:44;102034.44;;;-7.81;74.98
76762;BME280;65705;51.032;13.790;2022-12-18T02:05:15;102033.63;;;-7.82;74.95
76762;BME280;65705;51.032;13.790;2022-12-18T02:10:31;102031.94;;;-7.69;73.58
76762;BME280;65705;51.032;13.790;2022-12-18T02:18:27;102032.81;;;-7.38;72.37
76762;BME280;65705;51.032;13.790;2022-12-18T02:24:09;102039.59;;;-7.28;71.92
76762;BME280;65705;51.032;13.790;2022-12-18T02:26:48;102026.00;;;-7.32;71.91
76762;BME280;65705;51.032;13.790;2022-12-18T02:29:24;102031.09;;;-7.30;71.97
76762;BME280;65705;51.032;13.790;2022-12-18T02:31:56;102040.47;;;-7.26;71.76
76762;BME280;65705;51.032;13.790;2022-12-18T02:34:25;102036.22;;;-7.15;72.06
76762;BME280;65705;51.032;13.790;2022-12-18T02:36:54;102039.56;;;-7.04;71.76
76762;BME280;65705;51.032;13.790;2022-12-18T02:39:21;102047.22;;;-6.89;71.69
76762;BME280;65705;51.032;13.790;2022-12-18T02:41:57;102039.53;;;-6.86;71.77
76762;BME280;65705;51.032;13.790;2022-12-18T02:44:24;102039.53;;;-6.77;71.16
76762;BME280;65705;51.032;13.790;2022-12-18T02:46:52;102042.97;;;-6.90;71.02
76762;BME280;65705;51.032;13.790;2022-12-18T02:55:01;102034.47;;;-7.04;71.89
76762;BME280;65705;51.032;13.790;2022-12-18T03:00:14;102042.13;;;-6.98;71.74
76762;BME280;65705;51.032;13.790;2022-12-18T03:02:49;102047.25;;;-7.03;72.02
76762;BME280;65705;51.032;13.790;2022-12-18T03:05:23;102046.38;;;-6.94;71.99
76762;BME280;65705;51.032;13.790;2022-12-18T03:07:55;102044.66;;;-7.04;72.55
76762;BME280;65705;51.032;13.790;2022-12-18T03:10:28;102041.25;;;-6.99;72.36
76762;BME280;65705;51.032;13.790;2022-12-18T03:13:09;102041.28;;;-7.02;72.41
76762;BME280;65705;51.032;13.790;2022-12-18T03:15:49;102037.03;;;-6.94;72.29
76762;BME280;65705;51.032;13.790;2022-12-18T03:18:21;102052.31;;;-6.91;71.97
76762;BME280;65705;51.032;13.790;2022-12-18T03:20:49;102051.44;;;-6.88;71.79
76762;BME280;65705;51.032;13.790;2022-12-18T03:23:24;102049.75;;;-6.95;71.92
76762;BME280;65705;51.032;13.790;2022-12-18T03:25:55;102058.28;;;-6.87;72.32
76762;BME280;65705;51.032;13.790;2022-12-18T03:28:23;102058.28;;;-6.96;72.77
76762;BME280;65705;51.032;13.790;2022-12-18T03:30:58;102048.94;;;-7.00;72.30
76762;BME280;65705;51.032;13.790;2022-12-18T03:33:30;102056.56;;;-6.93;72.21
76762;BME280;65705;51.032;13.790;2022-12-18T03:36:00;102057.44;;;-7.03;72.87
76762;BME280;65705;51.032;13.790;2022-12-18T03:38:26;102059.97;;;-7.15;73.39
76762;BME280;65705;51.032;13.790;2022-12-18T03:40:56;102062.53;;;-7.00;72.85
76762;BME280;65705;51.032;13.790;2022-12-18T03:46:28;102057.44;;;-7.13;73.00
76762;BME280;65705;51.032;13.790;2022-12-18T03:49:47;102061.69;;;-7.27;72.92
76762;BME280;65705;51.032;13.790;2022-12-18T03:52:01;102061.69;;;-7.50;73.46
76762;BME280;65705;51.032;13.790;2022-12-18T03:54:29;102065.91;;;-7.61;73.56
76762;BME280;65705;51.032;13.790;2022-12-18T03:57:12;102074.41;;;-7.62;73.71
76762;BME280;65705;51.032;13.790;2022-12-18T03:59:41;102073.53;;;-7.72;73.67
76762;BME280;65705;51.032;13.790;2022-12-18T04:02:08;102066.72;;;-7.88;73.99
76762;BME280;65705;51.032;13.790;2022-12-18T04:04:39;102078.59;;;-7.91;73.85
76762;BME280;65705;51.032;13.790;2022-12-18T04:07:06;102074.31;;;-7.94;74.28
76762;BME280;65705;51.032;13.790;2022-12-18T04:09:37;102077.69;;;-7.99;74.43
76762;BME280;65705;51.032;13.790;2022-12-18T04:12:04;102076.03;;;-7.87;73.97
76762;BME280;65705;51.032;13.790;2022-12-18T04:14:31;102065.91;;;-7.76;74.07
76762;BME280;65705;51.032;13.790;2022-12-18T04:17:02;102072.72;;;-7.60;72.96
76762;BME280;65705;51.032;13.790;2022-12-18T04:19:30;102079.53;;;-7.47;72.40
76762;BME280;65705;51.032;13.790;2022-12-18T04:21:57;102085.47;;;-7.33;71.93
76762;BME280;65705;51.032;13.790;2022-12-18T04:24:23;102087.19;;;-7.33;71.82
76762;BME280;65705;51.032;13.790;2022-12-18T04:27:00;102085.47;;;-7.34;71.58
76762;BME280;65705;51.032;13.790;2022-12-18T04:29:32;102081.25;;;-7.34;71.28
76762;BME280;65705;51.032;13.790;2022-12-18T04:31:58;102092.28;;;-7.27;71.12
76762;BME280;65705;51.032;13.790;2022-12-18T04:34:25;102084.66;;;-7.20;70.97
76762;BME280;65705;51.032;13.790;2022-12-18T04:36:52;102086.34;;;-7.25;70.57
76762;BME280;65705;51.032;13.790;2022-12-18T04:39:19;102087.19;;;-7.27;70.64
76762;BME280;65705;51.032;13.790;2022-12-18T04:41:47;102079.56;;;-7.33;70.59
76762;BME280;65705;51.032;13.790;2022-12-18T04:44:14;102088.03;;;-7.39;70.55
76762;BME280;65705;51.032;13.790;2022-12-18T04:46:39;102098.22;;;-7.45;69.67
76762;BME280;65705;51.032;13.790;2022-12-18T04:49:05;102098.19;;;-7.53;70.28
76762;BME280;65705;51.032;13.790;2022-12-18T04:51:31;102096.50;;;-7.53;70.77
76762;BME280;65705;51.032;13.790;2022-12-18T04:53:56;102101.59;;;-7.49;70.80
76762;BME280;65705;51.032;13.790;2022-12-18T04:56:22;102105.84;;;-7.57;70.24
76762;BME280;65705;51.032;13.790;2022-12-18T04:58:48;102109.25;;;-7.57;69.77
76762;BME280;65705;51.032;13.790;2022-12-18T05:01:16;102099.03;;;-7.61;69.51
76762;BME280;65705;51.032;13.790;2022-12-18T05:03:42;102093.94;;;-7.75;69.97
76762;BME280;65705;51.032;13.790;2022-12-18T05:06:08;102089.69;;;-7.71;70.86
76762;BME280;65705;51.032;13.790;2022-12-18T05:08:34;102095.63;;;-7.65;70.39
76762;BME280;65705;51.032;13.790;2022-12-18T05:11:05;102098.22;;;-7.59;70.12
76762;BME280;65705;51.032;13.790;2022-12-18T05:13:33;102100.72;;;-7.63;69.79
76762;BME280;65705;51.032;13.790;2022-12-18T05:15:59;102099.03;;;-7.66;69.36
76762;BME280;65705;51.032;13.790;2022-12-18T05:18:26;102096.44;;;-7.79;69.82
76762;BME280;65705;51.032;13.790;2022-12-18T05:20:53;102101.53;;;-7.84;70.29
76762;BME280;65705;51.032;13.790;2022-12-18T05:23:20;102096.34;;;-8.05;70.45
76762;BME280;65705;51.032;13.790;2022-12-18T05:25:55;102103.16;;;-8.05;70.76
76762;BME280;65705;51.032;13.790;2022-12-18T05:28:22;102098.91;;;-8.09;70.58
76762;BME280;65705;51.032;13.790;2022-12-18T05:30:53;102100.63;;;-8.05;70.30
76762;BME280;65705;51.032;13.790;2022-12-18T05:33:20;102109.97;;;-8.00;70.27
76762;BME280;65705;51.032;13.790;2022-12-18T05:35:57;102104.03;;;-8.03;69.23
76762;BME280;65705;51.032;13.790;2022-12-18T05:38:24;102106.50;;;-8.17;70.19
76762;BME280;65705;51.032;13.790;2022-12-18T05:40:51;102097.13;;;-8.21;70.54
76762;BME280;65705;51.032;13.790;2022-12-18T05:43:18;102097.22;;;-8.07;70.67
76762;BME280;65705;51.032;13.790;2022-12-18T05:45:45;102109.06;;;-8.14;70.60
76762;BME280;65705;51.032;13.790;2022-12-18T05:48:14;102103.09;;;-8.25;70.83
76762;BME280;65705;51.032;13.790;2022-12-18T05:50:42;102105.63;;;-8.31;70.04
76762;BME280;65705;51.032;13.790;2022-12-18T05:53:08;102104.75;;;-8.33;69.77
76762;BME280;65705;51.032;13.790;2022-12-18T05:55:38;102108.97;;;-8.33;70.08
76762;BME280;65705;51.032;13.790;2022-12-18T05:58:05;102115.00;;;-8.19;69.23
76762;BME280;65705;51.032;13.790;2022-12-18T06:00:33;102116.69;;;-8.15;69.31
76762;BME280;65705;51.032;13.790;2022-12-18T06:03:00;102115.81;;;-8.23;69.69
76762;BME280;65705;51.032;13.790;2022-12-18T06:05:26;102118.34;;;-8.20;69.46
76762;BME280;65705;51.032;13.790;2022-12-18T06:07:53;102120.94;;;-8.11;69.23
76762;BME280;65705;51.032;13.790;2022-12-18T06:10:18;102121.75;;;-8.23;69.39
76762;BME280;65705;51.032;13.790;2022-12-18T06:12:44;102125.13;;;-8.22;69.94
76762;BME280;65705;51.032;13.790;2022-12-18T06:15:10;102126.88;;;-8.17;69.55
76762;BME280;65705;51.032;13.790;2022-12-18T06:17:36;102126.00;;;-8.22;69.59
76762;BME280;65705;51.032;13.790;2022-12-18T06:20:03;102130.25;;;-8.28;69.60
76762;BME280;65705;51.032;13.790;2022-12-18T06:22:31;102130.22;;;-8.31;69.71
76762;BME280;65705;51.032;13.790;2022-12-18T06:24:57;102133.56;;;-8.40;70.10
76762;BME280;65705;51.032;13.790;2022-12-18T06:27:23;102129.28;;;-8.44;70.34
76762;BME280;65705;51.032;13.790;2022-12-18T06:29:48;102130.09;;;-8.49;70.16
76762;BME280;65705;51.032;13.790;2022-12-18T06:32:14;102126.69;;;-8.53;69.76
76762;BME280;65705;51.032;13.790;2022-12-18T06:34:40;102134.34;;;-8.51;69.29
76762;BME280;65705;51.032;13.790;2022-12-18T06:37:05;102136.03;;;-8.52;69.28
76762;BME280;65705;51.032;13.790;2022-12-18T06:39:31;102144.47;;;-8.57;69.76
76762;BME280;65705;51.032;13.790;2022-12-18T06:41:57;102148.78;;;-8.50;69.11
76762;BME280;65705;51.032;13.790;2022-12-18T06:44:23;102138.53;;;-8.61;69.22
76762;BME280;65705;51.032;13.790;2022-12-18T06:46:48;102133.34;;;-8.73;70.17
76762;BME280;65705;51.032;13.790;2022-12-18T06:49:14;102131.66;;;-8.73;71.13
76762;BME280;65705;51.032;13.790;2022-12-18T06:51:41;102140.94;;;-8.79;71.21
76762;BME280;65705;51.032;13.790;2022-12-18T06:54:08;102138.47;;;-8.67;70.87
76762;BME280;65705;51.032;13.790;2022-12-18T06:56:34;102147.84;;;-8.63;70.49
76762;BME280;65705;51.032;13.790;2022-12-18T06:59:00;102153.00;;;-8.54;70.74
76762;BME280;65705;51.032;13.790;2022-12-18T07:01:26;102152.03;;;-8.68;71.02
76762;BME280;65705;51.032;13.790;2022-12-18T07:03:56;102158.88;;;-8.62;70.55
76762;BME280;65705;51.032;13.790;2022-12-18T07:06:23;102163.16;;;-8.54;70.20
76762;BME280;65705;51.032;13.790;2022-12-18T07:08:50;102165.78;;;-8.45;69.61
76762;BME280;65705;51.032;13.790;2022-12-18T07:11:16;102158.94;;;-8.53;69.56
76762;BME280;65705;51.032;13.790;2022-12-18T07:13:42;102171.66;;;-8.55;69.31
76762;BME280;65705;51.032;13.790;2022-12-18T07:16:12;102177.56;;;-8.56;69.52
76762;BME280;65705;51.032;13.790;2022-12-18T07:18:38;102177.66;;;-8.44;69.49
76762;BME280;65705;51.032;13.790;2022-12-18T07:21:05;102170.06;;;-8.39;69.40
76762;BME280;65705;51.032;13.790;2022-12-18T07:23:32;102167.50;;;-8.42;69.30
76762;BME280;65705;51.032;13.790;2022-12-18T07:26:09;102163.91;;;-8.67;70.66
76762;BME280;65705;51.032;13.790;2022-12-18T07:28:36;102161.31;;;-8.75;70.24
76762;BME280;65705;51.032;13.790;2022-12-18T07:31:04;102171.59;;;-8.62;70.31
76762;BME280;65705;51.032;13.790;2022-12-18T07:33:29;102173.41;;;-8.45;70.06
76762;BME280;65705;51.032;13.790;2022-12-18T07:35:55;102178.56;;;-8.39;69.71
76762;BME280;65705;51.032;13.790;2022-12-18T07:38:21;102181.13;;;-8.31;69.89
76762;BME280;65705;51.032;13.790;2022-12-18T07:40:47;102192.25;;;-8.14;69.63
76762;BME280;65705;51.032;13.790;2022-12-18T07:43:13;102193.13;;;-8.05;69.34
76762;BME280;65705;51.032;13.790;2022-12-18T07:45:38;102197.38;;;-8.05;69.03
76762;BME280;65705;51.032;13.790;2022-12-18T07:48:04;102190.56;;;-8.05;69.22
76762;BME280;65705;51.032;13.790;2022-12-18T07:50:30;102196.53;;;-8.09;69.16
76762;BME280;65705;51.032;13.790;2022-12-18T07:52:56;102197.34;;;-8.16;69.82
76762;BME280;65705;51.032;13.790;2022-12-18T07:55:21;102203.16;;;-8.33;70.51
76762;BME280;65705;51.032;13.790;2022-12-18T07:57:47;102204.78;;;-8.47;71.19
76762;BME280;65705;51.032;13.790;2022-12-18T08:00:13;102212.41;;;-8.46;71.76
76762;BME280;65705;51.032;13.790;2022-12-18T08:02:39;102199.72;;;-8.43;71.52
76762;BME280;65705;51.032;13.790;2022-12-18T08:05:05;102189.59;;;-8.35;71.82
76762;BME280;65705;51.032;13.790;2022-12-18T08:07:30;102193.88;;;-8.22;71.56
76762;BME280;65705;51.032;13.790;2022-12-18T08:09:56;102184.63;;;-8.08;71.05
76762;BME280;65705;51.032;13.790;2022-12-18T08:12:22;102188.94;;;-7.97;70.75
76762;BME280;65705;51.032;13.790;2022-12-18T08:14:48;102182.16;;;-7.98;70.54
76762;BME280;65705;51.032;13.790;2022-12-18T08:17:14;102180.47;;;-7.87;70.91
76762;BME280;65705;51.032;13.790;2022-12-18T08:19:39;102167.78;;;-7.82;70.42
76762;BME280;65705;51.032;13.790;2022-12-18T08:22:05;102165.25;;;-7.78;70.81
76762;BME280;65705;51.032;13.790;2022-12-18T08:24:31;102164.44;;;-7.68;70.60
76762;BME280;65705;51.032;13.790;2022-12-18T08:26:56;102171.25;;;-7.56;70.63
76762;BME280;65705;51.032;13.790;2022-12-18T08:29:22;102167.09;;;-7.39;70.48
76762;BME280;65705;51.032;13.790;2022-12-18T08:31:48;102171.34;;;-7.29;70.31
76762;BME280;65705;51.032;13.790;2022-12-18T08:34:14;102173.06;;;-7.22;71.04
76762;BME280;65705;51.032;13.790;2022-12-18T08:36:40;102172.22;;;-7.19;71.22
76762;BME280;65705;51.032;13.790;2022-12-18T08:39:06;102172.22;;;-7.22;71.45
76762;BME280;65705;51.032;13.790;2022-12-18T08:41:31;102167.97;;;-7.05;71.22
76762;BME280;65705;51.032;13.790;2022-12-18T08:43:57;102170.53;;;-6.84;71.75
76762;BME280;65705;51.032;13.790;2022-12-18T08:46:43;102175.66;;;-6.81;72.79
76762;BME280;65705;51.032;13.790;2022-12-18T08:49:10;102177.34;;;-6.76;72.53
76762;BME280;65705;51.032;13.790;2022-12-18T08:51:37;102170.56;;;-6.69;72.51
76762;BME280;65705;51.032;13.790;2022-12-18T08:54:04;102166.28;;;-6.61;72.50
76762;BME280;65705;51.032;13.790;2022-12-18T08:56:30;102178.19;;;-6.48;72.61
76762;BME280;65705;51.032;13.790;2022-12-18T08:58:56;102178.19;;;-6.43;73.25
76762;BME280;65705;51.032;13.790;2022-12-18T09:01:22;102179.88;;;-6.39;73.64
76762;BME280;65705;51.032;13.790;2022-12-18T09:03:49;102184.97;;;-6.32;73.75
76762;BME280;65705;51.032;13.790;2022-12-18T09:06:17;102181.56;;;-6.26;73.86
76762;BME280;65705;51.032;13.790;2022-12-18T09:08:46;102174.72;;;-6.20;73.42
76762;BME280;65705;51.032;13.790;2022-12-18T09:11:23;102169.63;;;-6.08;73.36
76762;BME280;65705;51.032;13.790;2022-12-18T09:13:49;102168.72;;;-5.99;73.53
76762;BME280;65705;51.032;13.790;2022-12-18T09:16:16;102178.91;;;-5.86;74.29
76762;BME280;65705;51.032;13.790;2022-12-18T09:18:42;102179.69;;;-5.81;74.53
76762;BME280;65705;51.032;13.790;2022-12-18T09:21:13;102189.91;;;-5.75;74.91
76762;BME280;65705;51.032;13.790;2022-12-18T09:23:40;102194.06;;;-5.51;75.85
76762;BME280;65705;51.032;13.790;2022-12-18T09:26:06;102199.97;;;-5.43;75.92
76762;BME280;65705;51.032;13.790;2022-12-18T09:28:31;102206.72;;;-5.28;75.97
76762;BME280;65705;51.032;13.790;2022-12-18T09:30:57;102202.44;;;-5.19;76.31
76762;BME280;65705;51.032;13.790;2022-12-18T09:33:23;102199.72;;;-4.95;75.96
76762;BME280;65705;51.032;13.790;2022-12-18T09:35:49;102201.38;;;-4.89;76.56
76762;BME280;65705;51.032;13.790;2022-12-18T09:38:17;102193.66;;;-4.83;77.18
76762;BME280;65705;51.032;13.790;2022-12-18T09:40:51;102192.72;;;-4.72;77.35
76762;BME280;65705;51.032;13.790;2022-12-18T09:43:45;102195.06;;;-4.48;77.37
76762;BME280;65705;51.032;13.790;2022-12-18T09:46:24;102194.13;;;-4.38;76.84
76762;BME280;65705;51.032;13.790;2022-12-18T09:48:54;102194.84;;;-4.22;76.61
76762;BME280;65705;51.032;13.790;2022-12-18T09:51:25;102192.19;;;-4.13;77.02
76762;BME280;65705;51.032;13.790;2022-12-18T09:53:57;102186.84;;;-3.93;76.27
76762;BME280;65705;51.032;13.790;2022-12-18T09:56:27;102189.25;;;-3.81;75.95
76762;BME280;65705;51.032;13.790;2022-12-18T09:59:00;102182.31;;;-3.72;75.54
76762;BME280;65705;51.032;13.790;2022-12-18T10:01:27;102178.03;;;-3.70;75.30
76762;BME280;65705;51.032;13.790;2022-12-18T10:03:54;102167.69;;;-3.65;75.25
76762;BME280;65705;51.032;13.790;2022-12-18T10:06:32;102163.16;;;-3.45;74.83
76762;BME280;65705;51.032;13.790;2022-12-18T10:09:09;102168.31;;;-3.47;74.25
76762;BME280;65705;51.032;13.790;2022-12-18T10:17:38;102138.06;;;-3.25;73.55
76762;BME280;65705;51.032;13.790;2022-12-18T10:20:16;102137.09;;;-3.18;73.21
76762;BME280;65705;51.032;13.790;2022-12-18T10:23:12;102122.53;;;-3.16;73.45
76762;BME280;65705;51.032;13.790;2022-12-18T10:26:00;102123.09;;;-2.99;72.94
76762;BME280;65705;51.032;13.790;2022-12-18T10:28:27;102120.53;;;-2.99;72.77
76762;BME280;65705;51.032;13.790;2022-12-18T10:30:55;102111.06;;;-2.95;72.22
76762;BME280;65705;51.032;13.790;2022-12-18T10:33:23;102109.28;;;-2.92;72.39
76762;BME280;65705;51.032;13.790;2022-12-18T10:35:52;102098.94;;;-2.86;72.46
76762;BME280;65705;51.032;13.790;2022-12-18T10:41:05;102101.31;;;-2.75;71.61
76762;BME280;65705;51.032;13.790;2022-12-18T10:48:40;102088.41;;;-2.71;71.46
76762;BME280;65705;51.032;13.790;2022-12-18T10:51:07;102086.47;;;-2.58;71.03
76762;BME280;65705;51.032;13.790;2022-12-18T10:53:36;102085.56;;;-2.57;71.19
76762;BME280;65705;51.032;13.790;2022-12-18T10:56:04;102084.81;;;-2.62;71.02
76762;BME280;65705;51.032;13.790;2022-12-18T10:58:32;102093.25;;;-2.56;70.77
76762;BME280;65705;51.032;13.790;2022-12-18T11:01:03;102096.72;;;-2.57;70.53
76762;BME280;65705;51.032;13.790;2022-12-18T11:03:38;102098.41;;;-2.57;70.64
76762;BME280;65705;51.032;13.790;2022-12-18T11:08:32;102094.78;;;-2.47;70.44
76762;BME280;65705;51.032;13.790;2022-12-18T11:10:58;102087.91;;;-2.45;70.12
76762;BME280;65705;51.032;13.790;2022-12-18T11:13:26;102085.06;;;-2.30;70.02
76762;BME280;65705;51.032;13.790;2022-12-18T11:15:53;102082.66;;;-2.39;70.04
76762;BME280;65705;51.032;13.790;2022-12-18T11:18:27;102066.09;;;-2.25;69.59
76762;BME280;65705;51.032;13.790;2022-12-18T11:20:57;102070.47;;;-2.28;69.31
76762;BME280;65705;51.032;13.790;2022-12-18T11:23:24;102060.09;;;-2.25;69.48
76762;BME280;65705;51.032;13.790;2022-12-18T11:25:53;102055.81;;;-2.25;69.53
76762;BME280;65705;51.032;13.790;2022-12-18T11:31:18;102066.75;;;-2.15;69.30
76762;BME280;65705;51.032;13.790;2022-12-18T11:33:58;102066.69;;;-2.12;68.71
76762;BME280;65705;51.032;13.790;2022-12-18T11:36:29;102064.16;;;-2.13;68.73
76762;BME280;65705;51.032;13.790;2022-12-18T11:38:59;102060.00;;;-2.19;69.04
76762;BME280;65705;51.032;13.790;2022-12-18T11:41:37;102057.25;;;-2.12;68.79
76762;BME280;65705;51.032;13.790;2022-12-18T11:44:31;102066.69;;;-2.12;68.21
76762;BME280;65705;51.032;13.790;2022-12-18T11:47:04;102058.25;;;-2.17;68.63
76762;BME280;65705;51.032;13.790;2022-12-18T11:49:35;102056.38;;;-2.10;68.04
76762;BME280;65705;51.032;13.790;2022-12-18T11:52:23;102063.19;;;-2.09;68.43
76762;BME280;65705;51.032;13.790;2022-12-18T11:54:52;102063.91;;;-2.01;67.97
76762;BME280;65705;51.032;13.790;2022-12-18T12:08:18;102069.13;;;-2.04;68.33
76762;BME280;65705;51.032;13.790;2022-12-18T12:13:38;102076.63;;;-1.94;67.75
76762;BME280;65705;51.032;13.790;2022-12-18T12:21:41;102087.72;;;-1.92;67.70
76762;BME280;65705;51.032;13.790;2022-12-18T12:27:07;102092.69;;;-1.83;67.57
76762;BME280;65705;51.032;13.790;2022-12-18T12:30:05;102083.25;;;-1.84;67.13
76762;BME280;65705;51.032;13.790;2022-12-18T12:38:17;102103.75;;;-1.79;67.02
76762;BME280;65705;51.032;13.790;2022-12-18T12:40:56;102115.81;;;-1.81;66.75
76762;BME280;65705;51.032;13.790;2022-12-18T12:43:37;102110.69;;;-1.83;66.47
76762;BME280;65705;51.032;13.790;2022-12-18T12:46:09;102110.66;;;-1.81;67.29
76762;BME280;65705;51.032;13.790;2022-12-18T12:51:23;102107.31;;;-1.85;67.55
76762;BME280;65705;51.032;13.790;2022-12-18T12:53:51;102101.19;;;-1.79;66.42
76762;BME280;65705;51.032;13.790;2022-12-18T12:56:20;102088.28;;;-1.78;66.78
76762;BME280;65705;51.032;13.790;2022-12-18T12:58:49;102096.19;;;-1.87;66.82
76762;BME280;65705;51.032;13.790;2022-12-18T13:04:35;102094.41;;;-1.83;66.66
76762;BME280;65705;51.032;13.790;2022-12-18T13:07:26;102086.84;;;-1.91;66.32
76762;BME280;65705;51.032;13.790;2022-12-18T13:17:48;102087.84;;;-1.98;66.05
76762;BME280;65705;51.032;13.790;2022-12-18T13:20:15;102075.88;;;-2.00;66.40
76762;BME280;65705;51.032;13.790;2022-12-18T13:22:48;102081.03;;;-2.00;66.79
76762;BME280;65705;51.032;13.790;2022-12-18T13:25:34;102091.56;;;-2.13;66.98
76762;BME280;65705;51.032;13.790;2022-12-18T13:38:24;102088.28;;;-2.19;67.46
76762;BME280;65705;51.032;13.790;2022-12-18T13:40:58;102084.00;;;-2.20;67.84
76762;BME280;65705;51.032;13.790;2022-12-18T13:43:30;102081.31;;;-2.14;67.07
76762;BME280;65705;51.032;13.790;2022-12-18T13:46:16;102086.25;;;-2.03;66.67
76762;BME280;65705;51.032;13.790;2022-12-18T13:51:57;102087.31;;;-2.15;67.31
76762;BME280;65705;51.032;13.790;2022-12-18T13:54:37;102091.59;;;-2.14;67.21
76762;BME280;65705;51.032;13.790;2022-12-18T13:57:05;102076.13;;;-2.13;67.53
76762;BME280;65705;51.032;13.790;2022-12-18T13:59:38;102076.13;;;-2.13;67.67
76762;BME280;65705;51.032;13.790;2022-12-18T14:02:16;102078.09;;;-2.25;68.42
76762;BME280;65705;51.032;13.790;2022-12-18T14:04:47;102084.31;;;-2.35;68.34
76762;BME280;65705;51.032;13.790;2022-12-18T14:07:15;102077.53;;;-2.39;68.42
76762;BME280;65705;51.032;13.790;2022-12-18T14:09:48;102080.94;;;-2.40;68.33
76762;BME280;65705;51.032;13.790;2022-12-18T14:12:21;102088.03;;;-2.51;69.17
76762;BME280;65705;51.032;13.790;2022-12-18T14:15:28;102082.75;;;-2.45;68.60
76762;BME280;65705;51.032;13.790;2022-12-18T14:18:24;102079.53;;;-2.55;69.23
76762;BME280;65705;51.032;13.790;2022-12-18T14:20:53;102081.31;;;-2.58;69.10
76762;BME280;65705;51.032;13.790;2022-12-18T14:23:40;102087.34;;;-2.61;69.60
76762;BME280;65705;51.032;13.790;2022-12-18T14:26:23;102079.75;;;-2.67;69.84
76762;BME280;65705;51.032;13.790;2022-12-18T14:28:50;102071.13;;;-2.64;69.68
76762;BME280;65705;51.032;13.790;2022-12-18T14:31:24;102070.28;;;-2.65;69.60
76762;BME280;65705;51.032;13.790;2022-12-18T14:33:51;102072.19;;;-2.74;69.87
76762;BME280;65705;51.032;13.790;2022-12-18T14:36:28;102059.50;;;-2.83;70.28